sensor_id;sensor_type;location;lat;lon;timestamp;P1;durP1;ratioP1;P2;durP2;ratioP2
63959;SDS011;50136;51.374;0.096;2024-03-02T00:08:00;5.70;;;1.73;;
63959;SDS011;50136;51.374;0.096;2024-03-02T00:18:05;4.47;;;1.25;;
63959;SDS011;50136;51.374;0.096;2024-03-02T00:28:18;7.47;;;1.90;;
63959;SDS011;50136;51.374;0.096;2024-03-02T00:38:21;4.68;;;1.40;;
63959;SDS011;50136;51.374;0.096;2024-03-02T00:48:24;6.25;;;1.95;;
63959;SDS011;50136;51.374;0.096;2024-03-02T00:58:26;5.38;;;1.30;;
63959;SDS011;50136;51.374;0.096;2024-03-02T01:08:30;9.55;;;2.15;;
63959;SDS011;50136;51.374;0.096;2024-03-02T01:18:32;11.23;;;2.30;;
63959;SDS011;50136;51.374;0.096;2024-03-02T01:28:35;8.25;;;2.13;;
63959;SDS011;50136;51.374;0.096;2024-03-02T01:38:37;12.23;;;2.03;;
63959;SDS011;50136;51.374;0.096;2024-03-02T01:48:40;11.85;;;1.73;;
63959;SDS011;50136;51.374;0.096;2024-03-02T01:58:43;13.75;;;1.90;;
63959;SDS011;50136;51.374;0.096;2024-03-02T02:08:46;10.00;;;1.77;;
63959;SDS011;50136;51.374;0.096;2024-03-02T02:18:48;14.48;;;1.73;;
63959;SDS011;50136;51.374;0.096;2024-03-02T02:28:52;10.00;;;1.98;;
63959;SDS011;50136;51.374;0.096;2024-03-02T02:38:54;11.13;;;2.58;;
63959;SDS011;50136;51.374;0.096;2024-03-02T02:48:57;5.88;;;1.60;;
63959;SDS011;50136;51.374;0.096;2024-03-02T02:59:00;13.02;;;1.70;;
63959;SDS011;50136;51.374;0.096;2024-03-02T03:09:03;12.13;;;2.85;;
63959;SDS011;50136;51.374;0.096;2024-03-02T03:19:05;12.90;;;2.55;;
63959;SDS011;50136;51.374;0.096;2024-03-02T03:29:08;12.25;;;4.30;;
63959;SDS011;50136;51.374;0.096;2024-03-02T03:39:10;12.73;;;2.35;;
63959;SDS011;50136;51.374;0.096;2024-03-02T03:49:14;14.75;;;2.78;;
63959;SDS011;50136;51.374;0.096;2024-03-02T03:59:16;10.57;;;2.40;;
63959;SDS011;50136;51.374;0.096;2024-03-02T04:09:19;15.27;;;2.60;;
63959;SDS011;50136;51.374;0.096;2024-03-02T04:19:21;19.17;;;2.45;;
63959;SDS011;50136;51.374;0.096;2024-03-02T04:29:25;17.15;;;4.18;;
63959;SDS011;50136;51.374;0.096;2024-03-02T04:39:27;28.95;;;4.10;;
63959;SDS011;50136;51.374;0.096;2024-03-02T04:49:30;28.02;;;3.67;;
63959;SDS011;50136;51.374;0.096;2024-03-02T04:59:32;13.57;;;2.85;;
63959;SDS011;50136;51.374;0.096;2024-03-02T05:09:36;21.77;;;3.78;;
63959;SDS011;50136;51.374;0.096;2024-03-02T05:19:38;16.13;;;1.92;;
63959;SDS011;50136;51.374;0.096;2024-03-02T05:29:41;16.58;;;2.50;;
63959;SDS011;50136;51.374;0.096;2024-03-02T05:39:43;14.25;;;2.80;;
63959;SDS011;50136;51.374;0.096;2024-03-02T05:49:48;19.58;;;3.10;;
63959;SDS011;50136;51.374;0.096;2024-03-02T05:59:50;17.63;;;2.78;;
63959;SDS011;50136;51.374;0.096;2024-03-02T06:09:53;30.73;;;4.57;;
63959;SDS011;50136;51.374;0.096;2024-03-02T06:19:55;9.27;;;2.20;;
63959;SDS011;50136;51.374;0.096;2024-03-02T06:29:59;16.60;;;2.80;;
63959;SDS011;50136;51.374;0.096;2024-03-02T06:40:01;14.52;;;2.47;;
63959;SDS011;50136;51.374;0.096;2024-03-02T06:50:05;21.48;;;4.55;;
63959;SDS011;50136;51.374;0.096;2024-03-02T07:00:07;5.88;;;1.55;;
63959;SDS011;50136;51.374;0.096;2024-03-02T07:10:11;9.32;;;1.65;;
63959;SDS011;50136;51.374;0.096;2024-03-02T07:20:13;14.20;;;2.53;;
63959;SDS011;50136;51.374;0.096;2024-03-02T07:30:16;8.38;;;2.03;;
63959;SDS011;50136;51.374;0.096;2024-03-02T07:40:19;11.10;;;1.95;;
63959;SDS011;50136;51.374;0.096;2024-03-02T07:50:22;7.63;;;2.03;;
63959;SDS011;50136;51.374;0.096;2024-03-02T08:00:24;7.68;;;1.80;;
63959;SDS011;50136;51.374;0.096;2024-03-02T08:10:28;9.02;;;1.65;;
63959;SDS011;50136;51.374;0.096;2024-03-02T08:20:30;8.68;;;2.05;;
63959;SDS011;50136;51.374;0.096;2024-03-02T08:30:34;3.80;;;1.10;;
63959;SDS011;50136;51.374;0.096;2024-03-02T08:40:36;10.35;;;1.73;;
63959;SDS011;50136;51.374;0.096;2024-03-02T08:50:39;8.48;;;2.03;;
63959;SDS011;50136;51.374;0.096;2024-03-02T09:00:41;10.50;;;2.08;;
63959;SDS011;50136;51.374;0.096;2024-03-02T09:10:45;9.82;;;3.45;;
63959;SDS011;50136;51.374;0.096;2024-03-02T09:20:47;12.57;;;1.55;;
63959;SDS011;50136;51.374;0.096;2024-03-02T09:30:51;8.65;;;1.65;;
63959;SDS011;50136;51.374;0.096;2024-03-02T09:40:54;7.20;;;2.47;;
63959;SDS011;50136;51.374;0.096;2024-03-02T09:51:39;7.93;;;2.20;;
63959;SDS011;50136;51.374;0.096;2024-03-02T10:01:51;6.00;;;1.63;;
63959;SDS011;50136;51.374;0.096;2024-03-02T10:12:03;3.13;;;1.25;;
63959;SDS011;50136;51.374;0.096;2024-03-02T10:22:06;9.40;;;1.30;;
63959;SDS011;50136;51.374;0.096;2024-03-02T10:32:10;4.75;;;1.23;;
63959;SDS011;50136;51.374;0.096;2024-03-02T10:42:13;7.03;;;1.30;;
63959;SDS011;50136;51.374;0.096;2024-03-02T10:52:17;12.80;;;1.63;;
63959;SDS011;50136;51.374;0.096;2024-03-02T11:02:19;3.03;;;0.90;;
63959;SDS011;50136;51.374;0.096;2024-03-02T11:12:25;2.65;;;0.65;;
63959;SDS011;50136;51.374;0.096;2024-03-02T11:22:30;1.77;;;0.70;;
63959;SDS011;50136;51.374;0.096;2024-03-02T11:32:34;0.82;;;0.63;;
63959;SDS011;50136;51.374;0.096;2024-03-02T11:42:36;1.17;;;0.50;;
63959;SDS011;50136;51.374;0.096;2024-03-02T11:52:41;1.05;;;0.55;;
63959;SDS011;50136;51.374;0.096;2024-03-02T12:02:44;0.68;;;0.40;;
63959;SDS011;50136;51.374;0.096;2024-03-02T12:12:49;0.82;;;0.50;;
63959;SDS011;50136;51.374;0.096;2024-03-02T12:33:01;1.63;;;0.55;;
63959;SDS011;50136;51.374;0.096;2024-03-02T12:43:04;1.65;;;0.57;;
63959;SDS011;50136;51.374;0.096;2024-03-02T12:53:13;6.65;;;0.80;;
63959;SDS011;50136;51.374;0.096;2024-03-02T13:03:17;4.57;;;0.90;;
63959;SDS011;50136;51.374;0.096;2024-03-02T13:13:21;1.40;;;0.70;;
63959;SDS011;50136;51.374;0.096;2024-03-02T13:23:23;2.58;;;0.60;;
63959;SDS011;50136;51.374;0.096;2024-03-02T13:33:35;1.90;;;0.75;;
63959;SDS011;50136;51.374;0.096;2024-03-02T13:43:37;1.60;;;0.60;;
63959;SDS011;50136;51.374;0.096;2024-03-02T13:53:41;6.07;;;1.10;;
63959;SDS011;50136;51.374;0.096;2024-03-02T14:03:43;1.13;;;0.68;;
63959;SDS011;50136;51.374;0.096;2024-03-02T14:13:46;4.80;;;0.90;;
63959;SDS011;50136;51.374;0.096;2024-03-02T14:23:48;1.92;;;0.80;;
63959;SDS011;50136;51.374;0.096;2024-03-02T14:33:52;2.20;;;0.63;;
63959;SDS011;50136;51.374;0.096;2024-03-02T14:43:55;3.17;;;0.70;;
63959;SDS011;50136;51.374;0.096;2024-03-02T14:54:00;1.00;;;0.60;;
63959;SDS011;50136;51.374;0.096;2024-03-02T15:04:02;3.17;;;1.08;;
63959;SDS011;50136;51.374;0.096;2024-03-02T15:14:06;4.45;;;0.75;;
63959;SDS011;50136;51.374;0.096;2024-03-02T15:24:11;3.15;;;1.05;;
63959;SDS011;50136;51.374;0.096;2024-03-02T15:34:14;1.13;;;0.70;;
63959;SDS011;50136;51.374;0.096;2024-03-02T15:44:16;5.18;;;1.52;;
63959;SDS011;50136;51.374;0.096;2024-03-02T15:54:20;2.55;;;1.05;;
63959;SDS011;50136;51.374;0.096;2024-03-02T16:04:22;2.65;;;1.02;;
63959;SDS011;50136;51.374;0.096;2024-03-02T16:14:26;2.45;;;1.00;;
63959;SDS011;50136;51.374;0.096;2024-03-02T16:24:30;3.17;;;0.82;;
63959;SDS011;50136;51.374;0.096;2024-03-02T16:34:36;1.48;;;0.63;;
63959;SDS011;50136;51.374;0.096;2024-03-02T16:44:41;5.13;;;0.90;;
63959;SDS011;50136;51.374;0.096;2024-03-02T16:54:47;5.80;;;2.00;;
63959;SDS011;50136;51.374;0.096;2024-03-02T17:04:50;5.30;;;1.02;;
63959;SDS011;50136;51.374;0.096;2024-03-02T17:14:53;3.63;;;1.52;;
63959;SDS011;50136;51.374;0.096;2024-03-02T17:24:55;2.28;;;0.98;;
63959;SDS011;50136;51.374;0.096;2024-03-02T17:35:02;3.00;;;1.02;;
63959;SDS011;50136;51.374;0.096;2024-03-02T17:45:05;3.40;;;1.58;;
63959;SDS011;50136;51.374;0.096;2024-03-02T17:55:11;2.72;;;1.20;;
63959;SDS011;50136;51.374;0.096;2024-03-02T18:05:17;3.40;;;1.20;;
63959;SDS011;50136;51.374;0.096;2024-03-02T18:15:20;6.93;;;1.63;;
63959;SDS011;50136;51.374;0.096;2024-03-02T18:25:28;5.65;;;1.83;;
63959;SDS011;50136;51.374;0.096;2024-03-02T18:35:33;4.97;;;2.37;;
63959;SDS011;50136;51.374;0.096;2024-03-02T18:45:35;9.55;;;3.38;;
63959;SDS011;50136;51.374;0.096;2024-03-02T18:55:41;3.92;;;1.48;;
63959;SDS011;50136;51.374;0.096;2024-03-02T19:05:44;8.55;;;1.90;;
63959;SDS011;50136;51.374;0.096;2024-03-02T19:15:51;5.22;;;2.45;;
63959;SDS011;50136;51.374;0.096;2024-03-02T19:25:56;13.27;;;5.43;;
63959;SDS011;50136;51.374;0.096;2024-03-02T19:36:01;5.85;;;3.10;;
63959;SDS011;50136;51.374;0.096;2024-03-02T19:46:04;5.68;;;2.78;;
63959;SDS011;50136;51.374;0.096;2024-03-02T19:56:07;8.27;;;3.40;;
63959;SDS011;50136;51.374;0.096;2024-03-02T20:06:09;10.70;;;5.32;;
63959;SDS011;50136;51.374;0.096;2024-03-02T20:16:12;8.77;;;5.45;;
63959;SDS011;50136;51.374;0.096;2024-03-02T20:26:15;9.02;;;6.03;;
63959;SDS011;50136;51.374;0.096;2024-03-02T20:36:22;11.38;;;6.65;;
63959;SDS011;50136;51.374;0.096;2024-03-02T20:46:24;11.82;;;6.65;;
63959;SDS011;50136;51.374;0.096;2024-03-02T20:56:27;21.75;;;12.88;;
63959;SDS011;50136;51.374;0.096;2024-03-02T21:06:29;8.32;;;4.75;;
63959;SDS011;50136;51.374;0.096;2024-03-02T21:16:33;11.98;;;4.13;;
63959;SDS011;50136;51.374;0.096;2024-03-02T21:26:37;6.47;;;3.42;;
63959;SDS011;50136;51.374;0.096;2024-03-02T21:36:41;28.25;;;14.57;;
63959;SDS011;50136;51.374;0.096;2024-03-02T21:46:44;8.05;;;4.32;;
63959;SDS011;50136;51.374;0.096;2024-03-02T21:56:47;9.18;;;3.83;;
63959;SDS011;50136;51.374;0.096;2024-03-02T22:06:52;9.52;;;3.60;;
63959;SDS011;50136;51.374;0.096;2024-03-02T22:16:56;8.63;;;4.05;;
63959;SDS011;50136;51.374;0.096;2024-03-02T22:26:58;6.15;;;3.08;;
63959;SDS011;50136;51.374;0.096;2024-03-02T22:37:01;7.40;;;3.05;;
63959;SDS011;50136;51.374;0.096;2024-03-02T22:47:04;5.35;;;3.13;;
63959;SDS011;50136;51.374;0.096;2024-03-02T22:57:07;5.20;;;3.35;;
63959;SDS011;50136;51.374;0.096;2024-03-02T23:07:09;6.82;;;3.05;;
63959;SDS011;50136;51.374;0.096;2024-03-02T23:17:13;6.32;;;2.67;;
63959;SDS011;50136;51.374;0.096;2024-03-02T23:27:15;7.60;;;2.70;;
63959;SDS011;50136;51.374;0.096;2024-03-02T23:37:18;7.07;;;2.40;;
63959;SDS011;50136;51.374;0.096;2024-03-02T23:47:20;5.95;;;2.35;;
63959;SDS011;50136;51.374;0.096;2024-03-02T23:57:24;3.13;;;2.20;;
